METAR Data
IDs: Format: Raw Decoded Include TAF

Data at: 1015 UTC 23 Jan 2019

KHCR 230955Z AUTO 00000KT 10SM CLR M21/M23 A3037 RMK AO2